Time;durP1;ratioP1;P1;durP2;ratioP2;P2;SDS_P1;SDS_P2;PMS_P1;PMS_P2;Temp;Humidity;BMP_temperature;BMP_pressure;BME280_temperature;BME280_humidity;BME280_pressure;Samples;Min_cycle;Max_cycle;Signal;HPM_P1;HPM_P2
2022/08/09 00:00:21;;;;;;;5.63;4.20;;;17.10;99.90;;;;;;5073140;28;20413;-77
2022/08/09 00:02:50;;;;;;;9.33;4.90;;;17.10;99.90;;;;;;5073024;28;20502;-76
2022/08/09 00:05:21;;;;;;;4.27;3.70;;;17.00;99.90;;;;;;5073527;28;20817;-76
2022/08/09 00:08:10;;;;;;;5.47;4.60;;;17.00;99.90;;;;;;5073442;28;20444;-75
2022/08/09 00:10:59;;;;;;;5.50;5.00;;;17.00;99.90;;;;;;5073932;28;20548;-75
2022/08/09 00:13:27;;;;;;;5.33;4.83;;;16.90;99.90;;;;;;5073219;28;20417;-75
2022/08/09 00:15:59;;;;;;;7.57;5.27;;;16.90;99.90;;;;;;5073245;28;20962;-75
2022/08/09 00:18:31;;;;;;;5.70;4.80;;;16.80;99.90;;;;;;5073133;28;20520;-76
2022/08/09 00:21:05;;;;;;;6.27;4.80;;;16.80;99.90;;;;;;5071830;28;20444;-75
2022/08/09 00:23:36;;;;;;;4.73;4.33;;;16.80;99.90;;;;;;5073444;28;20417;-75
2022/08/09 00:26:25;;;;;;;4.80;4.07;;;16.80;99.90;;;;;;5073328;28;20905;-75
2022/08/09 00:29:01;;;;;;;5.30;4.60;;;16.70;99.90;;;;;;5071894;28;20400;-76
2022/08/09 00:31:30;;;;;;;4.63;4.10;;;16.70;99.90;;;;;;5073363;28;20472;-76
2022/08/09 00:34:19;;;;;;;5.80;4.17;;;16.70;99.90;;;;;;5075256;28;20447;-76
2022/08/09 00:36:49;;;;;;;6.20;4.77;;;16.70;99.90;;;;;;5078435;28;20503;-76
2022/08/09 00:39:19;;;;;;;5.67;4.80;;;16.60;99.90;;;;;;5078603;28;20468;-76
2022/08/09 00:42:07;;;;;;;4.90;4.47;;;16.60;99.90;;;;;;5079353;28;20985;-76
2022/08/09 00:44:55;;;;;;;4.93;4.33;;;16.60;99.90;;;;;;5080723;28;20491;-76
2022/08/09 00:47:24;;;;;;;6.70;4.60;;;16.60;99.90;;;;;;5081442;28;20444;-76
2022/08/09 00:49:53;;;;;;;5.63;4.27;;;16.50;99.90;;;;;;5080745;28;20441;-76
2022/08/09 00:52:28;;;;;;;5.17;4.67;;;16.50;99.90;;;;;;5081272;28;20428;-76
2022/08/09 00:54:58;;;;;;;6.80;4.20;;;16.50;99.90;;;;;;5082256;28;20838;-77
2022/08/09 00:57:29;;;;;;;7.43;4.60;;;16.50;99.90;;;;;;5081814;28;20507;-75
2022/08/09 01:00:05;;;;;;;6.10;5.00;;;16.40;99.90;;;;;;5079289;28;20445;-76
2022/08/09 01:02:51;;;;;;;6.83;4.53;;;16.40;99.90;;;;;;5077051;28;20441;-76
2022/08/09 01:05:27;;;;;;;5.13;4.10;;;16.40;99.90;;;;;;5075417;28;20526;-76
2022/08/09 01:08:24;;;;;;;5.37;4.10;;;16.30;99.90;;;;;;5077079;28;20445;-76
2022/08/09 01:11:04;;;;;;;5.80;4.00;;;16.30;99.90;;;;;;5076177;28;20487;-76
2022/08/09 01:13:45;;;;;;;5.60;4.57;;;16.30;99.90;;;;;;5076376;28;20496;-75
2022/08/09 01:16:30;;;;;;;4.30;3.70;;;16.20;99.90;;;;;;5076263;28;20440;-76
2022/08/09 01:19:02;;;;;;;5.60;3.90;;;16.20;99.90;;;;;;5076279;28;20471;-76
2022/08/09 01:21:44;;;;;;;5.47;4.33;;;16.20;99.90;;;;;;5075895;28;20417;-76
2022/08/09 01:24:35;;;;;;;7.37;4.43;;;16.20;99.90;;;;;;5074475;28;20957;-76
2022/08/09 01:27:10;;;;;;;6.27;4.03;;;16.20;99.90;;;;;;5076402;28;20439;-75
2022/08/09 01:29:44;;;;;;;4.40;3.97;;;16.10;99.90;;;;;;5074499;28;20420;-76
2022/08/09 01:32:29;;;;;;;4.80;4.30;;;16.10;99.90;;;;;;5074270;28;20461;-76
2022/08/09 01:35:04;;;;;;;4.77;4.20;;;16.10;99.90;;;;;;5074268;28;20436;-76
2022/08/09 01:37:47;;;;;;;6.33;4.30;;;16.00;99.90;;;;;;5074391;28;20445;-76
2022/08/09 01:40:38;;;;;;;6.43;4.80;;;16.00;99.90;;;;;;5074293;28;20493;-75
2022/08/09 01:43:09;;;;;;;5.47;4.97;;;15.90;99.90;;;;;;5075776;28;20413;-76
2022/08/09 01:45:38;;;;;;;6.63;4.43;;;15.90;99.90;;;;;;5075292;28;20946;-75
2022/08/09 01:48:17;;;;;;;4.20;3.80;;;15.90;99.90;;;;;;5075692;28;20399;-76
2022/08/09 01:50:49;;;;;;;4.50;4.10;;;15.90;99.90;;;;;;5075422;28;20404;-75
2022/08/09 01:53:23;;;;;;;6.00;4.10;;;15.90;99.90;;;;;;5074044;28;20532;-77
2022/08/09 01:55:58;;;;;;;4.53;4.00;;;15.90;99.90;;;;;;5073840;28;20465;-76
2022/08/09 01:58:29;;;;;;;6.10;4.70;;;15.80;99.90;;;;;;5073806;28;21015;-75
2022/08/09 02:00:59;;;;;;;5.50;4.17;;;15.80;99.90;;;;;;5075607;28;20484;-75
2022/08/09 02:03:30;;;;;;;5.53;5.03;;;15.80;99.90;;;;;;5075542;28;20409;-76
2022/08/09 02:06:00;;;;;;;8.70;5.10;;;15.70;99.90;;;;;;5073693;28;20493;-76
2022/08/09 02:08:36;;;;;;;6.00;4.80;;;15.70;99.90;;;;;;5074985;28;20412;-75
2022/08/09 02:11:26;;;;;;;5.37;4.77;;;15.70;99.90;;;;;;5075303;28;20462;-75
2022/08/09 02:14:14;;;;;;;5.47;4.07;;;15.70;99.90;;;;;;5074977;28;20923;-76
2022/08/09 02:16:55;;;;;;;7.10;4.13;;;15.60;99.90;;;;;;5074990;28;20512;-76
2022/08/09 02:19:44;;;;;;;6.00;4.63;;;15.60;99.90;;;;;;5073398;28;20433;-76
2022/08/09 02:22:20;;;;;;;5.57;4.30;;;15.60;99.90;;;;;;5075107;28;20468;-76
2022/08/09 02:25:07;;;;;;;4.40;3.60;;;15.60;99.90;;;;;;5074608;28;20531;-76
2022/08/09 02:27:38;;;;;;;5.77;4.13;;;15.60;99.90;;;;;;5074965;28;20454;-75
2022/08/09 02:30:29;;;;;;;7.07;5.00;;;15.50;99.90;;;;;;5074446;28;20760;-76
2022/08/09 02:32:59;;;;;;;4.30;3.80;;;15.50;99.90;;;;;;5074364;28;20424;-75
2022/08/09 02:35:29;;;;;;;7.20;4.63;;;15.40;99.90;;;;;;5074888;28;20762;-76
2022/08/09 02:38:23;;;;;;;5.93;4.90;;;15.40;99.90;;;;;;5074694;28;20524;-75
2022/08/09 02:41:01;;;;;;;5.40;4.90;;;15.40;99.90;;;;;;5074612;28;20436;-76
2022/08/09 02:43:34;;;;;;;4.73;4.20;;;15.40;99.90;;;;;;5074690;28;20482;-76
2022/08/09 02:46:26;;;;;;;4.87;4.33;;;15.30;99.90;;;;;;5073736;28;20512;-76
2022/08/09 02:49:00;;;;;;;5.53;4.60;;;15.30;99.90;;;;;;5072796;28;20918;-75
2022/08/09 02:51:34;;;;;;;5.30;4.73;;;15.30;99.90;;;;;;5073383;28;20936;-75
2022/08/09 02:54:10;;;;;;;4.43;4.03;;;15.30;99.90;;;;;;5072584;28;20433;-76
2022/08/09 02:56:42;;;;;;;14.13;5.97;;;15.30;99.90;;;;;;5074228;28;20388;-75
2022/08/09 02:59:20;;;;;;;5.10;4.47;;;15.30;99.90;;;;;;5072629;28;20428;-75
2022/08/09 03:02:06;;;;;;;5.17;4.67;;;15.20;99.90;;;;;;5074439;28;20432;-76
2022/08/09 03:04:46;;;;;;;6.27;4.90;;;15.20;99.90;;;;;;5072553;28;20471;-76
2022/08/09 03:07:18;;;;;;;5.23;4.67;;;15.20;99.90;;;;;;5073806;28;20403;-76
2022/08/09 03:09:49;;;;;;;7.20;5.70;;;15.20;99.90;;;;;;5073673;28;20444;-77
2022/08/09 03:12:24;;;;;;;5.60;4.70;;;15.20;99.90;;;;;;5073644;28;20428;-76
2022/08/09 03:14:53;;;;;;;6.00;5.13;;;15.10;99.90;;;;;;5073459;28;20510;-76
2022/08/09 03:17:24;;;;;;;5.70;5.10;;;15.10;99.90;;;;;;5072426;28;20420;-75
2022/08/09 03:19:59;;;;;;;9.80;8.80;;;15.10;99.90;;;;;;5072301;28;20430;-76
2022/08/09 03:22:39;;;;;;;6.67;6.07;;;15.10;99.90;;;;;;5073541;28;20390;-76
2022/08/09 03:25:11;;;;;;;5.17;4.70;;;15.10;99.90;;;;;;5072292;28;20496;-75
2022/08/09 03:28:02;;;;;;;6.50;5.90;;;15.00;99.90;;;;;;5073534;28;20495;-76
2022/08/09 03:30:31;;;;;;;8.00;6.23;;;15.00;99.90;;;;;;5073561;28;20910;-75
2022/08/09 03:33:07;;;;;;;6.70;6.10;;;15.00;99.90;;;;;;5072133;28;20482;-76
2022/08/09 03:35:48;;;;;;;6.03;5.43;;;15.00;99.90;;;;;;5072107;28;20510;-76
2022/08/09 03:38:37;;;;;;;5.97;5.07;;;14.90;99.90;;;;;;5072079;28;20945;-76
2022/08/09 03:41:09;;;;;;;6.40;5.37;;;14.90;99.90;;;;;;5073415;28;20399;-76
2022/08/09 03:43:44;;;;;;;9.23;5.13;;;14.90;99.90;;;;;;5073439;28;20429;-76
2022/08/09 03:46:32;;;;;;;6.47;5.87;;;14.90;99.90;;;;;;5072144;28;20429;-75
2022/08/09 03:49:03;;;;;;;6.60;5.03;;;14.90;99.90;;;;;;5073466;28;20488;-75
2022/08/09 03:51:39;;;;;;;5.43;4.90;;;14.90;99.90;;;;;;5071985;28;20429;-75
2022/08/09 03:54:27;;;;;;;5.37;4.87;;;14.90;99.90;;;;;;5071960;28;20519;-75
2022/08/09 03:57:01;;;;;;;5.57;5.07;;;14.90;99.90;;;;;;5073886;28;20981;-76
2022/08/09 03:59:31;;;;;;;6.00;4.37;;;14.80;99.90;;;;;;5073561;28;20433;-75
2022/08/09 04:02:21;;;;;;;5.70;5.13;;;14.80;99.90;;;;;;5073201;28;20445;-76
2022/08/09 04:04:57;;;;;;;5.43;4.93;;;14.80;99.90;;;;;;5071895;28;20490;-76
2022/08/09 04:07:28;;;;;;;6.27;5.17;;;14.80;99.90;;;;;;5073916;28;20434;-75
2022/08/09 04:10:16;;;;;;;5.57;5.07;;;14.80;99.90;;;;;;5073668;28;20404;-75
2022/08/09 04:12:50;;;;;;;6.30;5.70;;;14.80;99.90;;;;;;5071886;28;20457;-75
2022/08/09 04:15:20;;;;;;;6.73;5.37;;;14.70;99.90;;;;;;5073155;28;20452;-75
2022/08/09 04:18:08;;;;;;;6.50;5.90;;;14.70;99.90;;;;;;5071719;28;20419;-76
2022/08/09 04:20:46;;;;;;;5.73;5.13;;;14.70;99.90;;;;;;5073292;28;20388;-74
2022/08/09 04:23:14;;;;;;;6.07;5.47;;;14.70;99.90;;;;;;5073071;28;20881;-74
2022/08/09 04:25:44;;;;;;;7.53;5.70;;;14.70;99.90;;;;;;5071810;28;20531;-75
2022/08/09 04:28:21;;;;;;;5.53;5.07;;;14.70;99.90;;;;;;5077026;28;20838;-74
2022/08/09 04:31:05;;;;;;;6.87;6.20;;;14.70;99.90;;;;;;5078181;28;20417;-75
2022/08/09 04:33:38;;;;;;;6.43;5.83;;;14.70;99.90;;;;;;5077505;28;20832;-74
2022/08/09 04:36:23;;;;;;;6.17;5.50;;;14.70;99.90;;;;;;5077172;28;20431;-76
2022/08/09 04:38:52;;;;;;;5.77;5.27;;;14.70;99.90;;;;;;5075408;28;20448;-75
2022/08/09 04:41:21;;;;;;;7.47;6.50;;;14.60;99.90;;;;;;5075499;28;20514;-74
2022/08/09 04:43:52;;;;;;;6.57;5.97;;;14.60;99.90;;;;;;5076496;28;20413;-75
2022/08/09 04:46:37;;;;;;;7.53;6.30;;;14.60;99.90;;;;;;5076954;28;20399;-75
2022/08/09 04:49:26;;;;;;;7.90;6.10;;;14.60;99.90;;;;;;5075186;28;20996;-75
2022/08/09 04:52:15;;;;;;;8.20;7.40;;;14.60;99.90;;;;;;5076655;28;20782;-75
2022/08/09 04:54:46;;;;;;;7.00;6.17;;;14.70;99.90;;;;;;5074948;28;20912;-75
2022/08/09 04:57:15;;;;;;;6.57;5.97;;;14.60;99.90;;;;;;5076259;28;20475;-74
2022/08/09 04:59:51;;;;;;;7.27;5.50;;;14.70;99.90;;;;;;5076178;28;20903;-75
2022/08/09 05:02:19;;;;;;;6.60;5.67;;;14.70;99.90;;;;;;5076065;28;20437;-75
2022/08/09 05:04:48;;;;;;;6.27;5.40;;;14.70;99.90;;;;;;5074842;28;20465;-75
2022/08/09 05:07:25;;;;;;;7.00;6.13;;;14.70;99.90;;;;;;5075248;28;20829;-76
2022/08/09 05:09:56;;;;;;;6.40;5.90;;;14.70;99.90;;;;;;5076126;28;20429;-75
2022/08/09 05:12:28;;;;;;;9.27;6.63;;;14.70;99.90;;;;;;5075072;28;20755;-75
2022/08/09 05:14:57;;;;;;;7.23;6.63;;;14.70;99.90;;;;;;5076138;28;20510;-75
2022/08/09 05:17:26;;;;;;;6.30;5.67;;;14.70;99.90;;;;;;5076144;28;20433;-75
2022/08/09 05:20:14;;;;;;;7.20;5.90;;;14.80;99.90;;;;;;5076401;28;20426;-75
2022/08/09 05:22:43;;;;;;;6.50;5.60;;;14.80;99.90;;;;;;5079483;28;20909;-75
2022/08/09 05:25:31;;;;;;;7.93;6.90;;;14.80;99.90;;;;;;5084836;28;20457;-75
2022/08/09 05:28:02;;;;;;;9.77;6.53;;;14.90;99.90;;;;;;5084915;28;20452;-75
2022/08/09 05:30:30;;;;;;;7.10;6.40;;;14.90;99.90;;;;;;5084467;28;20531;-75
2022/08/09 05:32:59;;;;;;;7.27;6.57;;;14.90;99.90;;;;;;5083492;28;20500;-76
2022/08/09 05:35:29;;;;;;;7.40;6.50;;;15.00;99.90;;;;;;5085737;28;20515;-75
2022/08/09 05:38:07;;;;;;;7.13;6.30;;;15.00;99.90;;;;;;5084550;28;20429;-76
2022/08/09 05:40:35;;;;;;;14.57;7.33;;;15.00;99.90;;;;;;5081935;28;20454;-75
2022/08/09 05:43:04;;;;;;;7.77;6.90;;;15.00;99.90;;;;;;5082027;28;20415;-76
2022/08/09 05:45:32;;;;;;;7.77;6.00;;;15.10;99.90;;;;;;5081775;28;20467;-76
2022/08/09 05:48:20;;;;;;;7.53;6.63;;;15.10;99.90;;;;;;5080716;28;20965;-76
2022/08/09 05:51:00;;;;;;;7.23;6.53;;;15.20;99.90;;;;;;5078428;28;20504;-75
2022/08/09 05:53:50;;;;;;;7.23;6.53;;;15.20;99.90;;;;;;5074575;28;20487;-75
2022/08/09 05:56:27;;;;;;;9.07;6.73;;;15.30;99.90;;;;;;5075925;28;20417;-76
2022/08/09 05:58:57;;;;;;;10.80;7.30;;;15.40;99.90;;;;;;5075946;28;20825;-76
2022/08/09 06:01:27;;;;;;;9.03;7.93;;;15.60;99.90;;;;;;5074089;28;20477;-75
2022/08/09 06:04:09;;;;;;;7.23;6.43;;;15.80;99.90;;;;;;5075366;28;20417;-75
2022/08/09 06:06:40;;;;;;;8.60;7.00;;;16.00;99.90;;;;;;5074125;28;20404;-75
2022/08/09 06:09:19;;;;;;;8.80;7.27;;;16.20;99.90;;;;;;5073850;28;20437;-76
2022/08/09 06:12:07;;;;;;;7.47;6.40;;;16.50;99.90;;;;;;5073718;28;20434;-77
2022/08/09 06:14:36;;;;;;;7.20;6.50;;;16.80;99.90;;;;;;5073560;28;20535;-76
2022/08/09 06:17:04;;;;;;;6.47;5.80;;;17.10;99.90;;;;;;5073728;28;20970;-76
2022/08/09 06:19:37;;;;;;;7.30;6.60;;;17.30;99.90;;;;;;5075031;28;20475;-75
2022/08/09 06:22:06;;;;;;;6.50;5.33;;;17.60;99.90;;;;;;5073769;28;21012;-76
2022/08/09 06:24:43;;;;;;;7.93;6.00;;;17.80;99.90;;;;;;5074817;28;20462;-76
2022/08/09 06:27:13;;;;;;;5.93;5.33;;;18.10;99.90;;;;;;5074986;28;20845;-76
2022/08/09 06:29:43;;;;;;;5.77;5.17;;;18.40;99.90;;;;;;5074003;28;20884;-76
2022/08/09 06:32:25;;;;;;;6.47;5.13;;;18.60;99.90;;;;;;5075038;28;20421;-76
2022/08/09 06:35:14;;;;;;;10.17;5.47;;;19.00;99.90;;;;;;5074433;28;20483;-76
2022/08/09 06:37:42;;;;;;;5.00;4.50;;;19.30;99.90;;;;;;5073275;28;20544;-76
2022/08/09 06:40:32;;;;;;;7.20;3.90;;;19.60;99.90;;;;;;5073062;28;20437;-76
2022/08/09 06:43:00;;;;;;;8.50;5.70;;;19.90;99.90;;;;;;5074859;28;20496;-76
2022/08/09 06:45:30;;;;;;;7.23;4.53;;;20.20;99.90;;;;;;5074247;28;20469;-76
2022/08/09 06:48:18;;;;;;;5.87;3.93;;;20.40;99.90;;;;;;5074814;28;20785;-77
2022/08/09 06:50:58;;;;;;;6.27;3.87;;;20.60;99.90;;;;;;5072374;28;20576;-76
2022/08/09 06:53:27;;;;;;;6.00;4.20;;;20.90;99.90;;;;;;5074363;28;20527;-76
2022/08/09 06:56:07;;;;;;;11.20;4.40;;;21.00;99.90;;;;;;5074836;28;20453;-77
2022/08/09 06:58:37;;;;;;;9.33;4.93;;;21.20;99.90;;;;;;5072936;28;20487;-77
2022/08/09 07:01:25;;;;;;;7.90;4.87;;;21.40;99.90;;;;;;5074202;28;20448;-76
2022/08/09 07:04:13;;;;;;;6.33;4.80;;;21.50;99.90;;;;;;5074540;28;20500;-76
2022/08/09 07:06:47;;;;;;;7.63;5.20;;;21.70;99.90;;;;;;5074653;28;20429;-76
2022/08/09 07:09:26;;;;;;;13.17;5.30;;;21.80;99.90;;;;;;5074505;28;20576;-76
2022/08/09 07:12:16;;;;;;;10.23;5.00;;;21.90;99.90;;;;;;5072686;28;20436;-76
2022/08/09 07:14:48;;;;;;;7.47;4.00;;;22.10;99.90;;;;;;5072706;28;20489;-76
2022/08/09 07:17:18;;;;;;;6.83;4.23;;;22.20;99.90;;;;;;5074405;28;20417;-76
2022/08/09 07:19:48;;;;;;;7.53;4.07;;;22.40;99.90;;;;;;5073728;28;20456;-76
2022/08/09 07:22:24;;;;;;;6.87;3.30;;;22.50;99.90;;;;;;5074390;28;20426;-77
2022/08/09 07:25:03;;;;;;;7.33;3.33;;;22.70;99.90;;;;;;5073942;28;20453;-77
2022/08/09 07:27:40;;;;;;;4.87;3.43;;;22.90;99.90;;;;;;5077436;28;20412;-76
2022/08/09 07:30:20;;;;;;;5.20;3.40;;;23.00;99.90;;;;;;5075793;28;20428;-76
2022/08/09 07:32:52;;;;;;;6.40;3.50;;;23.20;99.90;;;;;;5074793;28;20418;-76
2022/08/09 07:35:22;;;;;;;9.93;3.83;;;23.40;99.90;;;;;;5074382;28;20473;-77
2022/08/09 07:37:52;;;;;;;7.63;3.60;;;23.40;99.90;;;;;;5075203;28;20413;-77
2022/08/09 07:40:27;;;;;;;5.83;3.87;;;23.50;99.90;;;;;;5074294;28;20436;-76
2022/08/09 07:43:16;;;;;;;5.80;3.20;;;23.70;99.90;;;;;;5074388;28;20432;-77
2022/08/09 07:45:44;;;;;;;6.90;3.73;;;23.70;99.90;;;;;;5074528;28;20464;-76
2022/08/09 07:48:14;;;;;;;6.80;3.83;;;23.90;99.90;;;;;;5074851;28;20485;-77
2022/08/09 07:50:58;;;;;;;5.20;3.30;;;23.90;99.90;;;;;;5073377;28;20810;-78
2022/08/09 07:53:46;;;;;;;8.33;3.43;;;24.10;99.90;;;;;;5073593;28;20437;-79
2022/08/09 07:56:35;;;;;;;8.60;3.80;;;24.20;99.90;;;;;;5073759;28;20444;-78
2022/08/09 07:59:07;;;;;;;5.87;3.07;;;24.30;99.90;;;;;;5075508;28;20422;-78
2022/08/09 08:01:54;;;;;;;4.50;3.20;;;24.40;99.90;;;;;;5076682;28;20546;-78
2022/08/09 08:04:23;;;;;;;8.00;4.30;;;24.50;99.90;;;;;;5079287;28;20951;-78
2022/08/09 08:07:02;;;;;;;6.30;3.87;;;24.60;99.90;;;;;;5079587;28;20972;-76
2022/08/09 08:09:50;;;;;;;9.30;4.23;;;24.70;99.90;;;;;;5078070;28;20958;-76
2022/08/09 08:12:36;;;;;;;10.63;3.73;;;24.60;99.90;;;;;;5077758;28;20449;-77
2022/08/09 08:15:14;;;;;;;6.37;4.07;;;24.70;99.90;;;;;;5079192;28;20486;-76
2022/08/09 08:17:46;;;;;;;6.23;3.67;;;24.60;99.90;;;;;;5077675;28;20923;-76
2022/08/09 08:20:26;;;;;;;8.30;4.10;;;24.60;99.90;;;;;;5078367;28;20421;-76
2022/08/09 08:23:01;;;;;;;4.20;2.93;;;24.60;99.70;;;;;;5078879;28;20457;-77
2022/08/09 08:25:43;;;;;;;8.43;3.50;;;24.60;99.40;;;;;;5076982;28;21008;-76
2022/08/09 08:28:15;;;;;;;4.30;3.10;;;24.60;99.40;;;;;;5080689;28;20973;-78
2022/08/09 08:30:54;;;;;;;5.73;2.93;;;24.70;99.20;;;;;;5079595;28;20795;-78
2022/08/09 08:33:23;;;;;;;6.23;3.50;;;24.70;99.00;;;;;;5078514;28;20454;-76
2022/08/09 08:35:53;;;;;;;8.90;3.93;;;24.70;98.80;;;;;;5076470;28;20997;-76
2022/08/09 08:38:30;;;;;;;5.47;4.17;;;24.70;98.70;;;;;;5076883;28;20476;-77
2022/08/09 08:40:59;;;;;;;6.37;3.93;;;24.70;98.60;;;;;;5077041;28;20445;-77
2022/08/09 08:43:32;;;;;;;6.33;3.33;;;24.80;98.50;;;;;;5077527;28;20440;-77
2022/08/09 08:46:08;;;;;;;4.90;3.27;;;24.80;98.30;;;;;;5077885;28;20462;-78
2022/08/09 08:48:57;;;;;;;6.37;3.27;;;24.90;98.20;;;;;;5078388;28;20425;-76
2022/08/09 08:51:26;;;;;;;6.83;4.13;;;24.90;98.00;;;;;;5076827;28;20463;-78
2022/08/09 08:54:10;;;;;;;7.80;4.00;;;24.90;97.80;;;;;;5078734;28;20499;-78
2022/08/09 08:56:57;;;;;;;8.03;3.50;;;24.90;97.80;;;;;;5077223;28;20413;-76
2022/08/09 08:59:25;;;;;;;4.70;2.90;;;24.90;97.80;;;;;;5078140;28;20443;-79
2022/08/09 09:02:25;;;;;;;5.33;3.30;;;24.90;97.80;;;;;;5077623;28;20963;-78
2022/08/09 09:05:00;;;;;;;5.77;3.30;;;25.00;97.70;;;;;;5077814;28;20573;-77
2022/08/09 09:07:37;;;;;;;5.83;3.00;;;25.00;97.50;;;;;;5076661;28;20982;-76
2022/08/09 09:10:12;;;;;;;5.10;2.90;;;24.90;97.40;;;;;;5076697;28;20432;-77
2022/08/09 09:12:43;;;;;;;5.23;2.70;;;24.90;97.30;;;;;;5077805;28;20524;-77
2022/08/09 09:15:12;;;;;;;3.67;2.90;;;25.00;97.20;;;;;;5077534;28;20508;-78
2022/08/09 09:17:57;;;;;;;3.93;2.30;;;25.00;97.20;;;;;;5076754;28;20815;-78
2022/08/09 09:20:26;;;;;;;4.10;3.10;;;25.00;97.10;;;;;;5076402;28;20433;-77
2022/08/09 09:22:56;;;;;;;4.27;2.03;;;25.00;97.10;;;;;;5076120;28;20456;-77
2022/08/09 09:25:34;;;;;;;7.90;2.60;;;25.10;96.90;;;;;;5078048;28;20475;-77
2022/08/09 09:28:22;;;;;;;2.70;2.10;;;25.10;96.80;;;;;;5077428;28;20801;-76
2022/08/09 09:31:14;;;;;;;2.90;2.10;;;25.10;96.70;;;;;;5077016;28;20517;-78
2022/08/09 09:34:22;;;;;;;2.30;1.80;;;25.10;96.70;;;;;;5079322;28;20933;-80
2022/08/09 09:36:50;;;;;;;4.40;2.60;;;25.10;96.60;;;;;;5079835;28;20459;-78
2022/08/09 09:39:23;;;;;;;5.30;1.90;;;25.20;96.60;;;;;;5076297;28;20464;-77
2022/08/09 09:42:24;;;;;;;2.37;2.03;;;25.20;96.30;;;;;;5078053;28;20426;-78
2022/08/09 09:44:57;;;;;;;4.80;2.77;;;25.20;96.10;;;;;;5075411;28;20469;-77
2022/08/09 09:47:27;;;;;;;4.50;2.77;;;25.30;96.10;;;;;;5074999;28;20517;-77
2022/08/09 09:49:59;;;;;;;4.93;2.00;;;25.20;95.90;;;;;;5077835;28;20444;-77
2022/08/09 09:52:49;;;;;;;2.83;1.67;;;25.20;95.80;;;;;;5075791;28;20449;-77
2022/08/09 09:55:22;;;;;;;2.57;1.90;;;25.30;95.70;;;;;;5076361;28;20469;-76
2022/08/09 09:58:02;;;;;;;2.90;1.47;;;25.30;95.60;;;;;;5075652;28;20476;-76
2022/08/09 10:00:48;;;;;;;2.60;1.47;;;25.30;95.40;;;;;;5076408;28;20440;-76
2022/08/09 10:03:39;;;;;;;2.83;1.80;;;25.30;95.20;;;;;;5075883;28;20417;-79
2022/08/09 10:06:11;;;;;;;2.97;1.93;;;25.30;95.00;;;;;;5074627;28;20469;-77
2022/08/09 10:08:40;;;;;;;4.30;1.53;;;25.30;95.00;;;;;;5076096;28;20413;-77
2022/08/09 10:11:24;;;;;;;3.10;1.77;;;25.30;94.80;;;;;;5074410;28;20445;-77
2022/08/09 10:14:22;;;;;;;2.67;1.60;;;25.30;94.80;;;;;;5075665;28;20437;-77
2022/08/09 10:17:10;;;;;;;3.60;1.47;;;25.30;94.60;;;;;;5076012;28;20505;-77
2022/08/09 10:19:58;;;;;;;2.90;1.83;;;25.40;94.50;;;;;;5075407;28;20443;-76
2022/08/09 10:22:37;;;;;;;4.50;2.10;;;25.40;94.30;;;;;;5076088;28;20445;-76
2022/08/09 10:25:08;;;;;;;2.80;2.10;;;25.40;94.20;;;;;;5074135;28;20491;-76
2022/08/09 10:27:43;;;;;;;3.20;2.50;;;25.50;94.20;;;;;;5076176;28;20471;-76
2022/08/09 10:30:25;;;;;;;3.70;1.97;;;25.50;94.10;;;;;;5087619;28;20418;-78
2022/08/09 10:33:14;;;;;;;3.33;2.40;;;25.50;94.00;;;;;;5089527;28;20472;-78
2022/08/09 10:36:03;;;;;;;6.03;2.50;;;25.50;94.00;;;;;;5089611;28;20539;-76
2022/08/09 10:38:33;;;;;;;3.90;2.40;;;25.50;93.80;;;;;;5087107;28;20465;-76
2022/08/09 10:41:21;;;;;;;5.13;2.10;;;25.50;93.70;;;;;;5088224;28;20425;-75
2022/08/09 10:43:51;;;;;;;5.47;2.30;;;25.50;93.70;;;;;;5087861;28;20443;-75
2022/08/09 10:47:07;;;;;;;2.77;2.07;;;25.50;93.60;;;;;;5085752;28;20449;-77
2022/08/09 10:50:04;;;;;;;2.40;1.93;;;25.50;93.50;;;;;;5094627;28;20543;-77
2022/08/09 10:53:03;;;;;;;4.90;2.07;;;25.50;93.50;;;;;;5080304;28;20437;-76
2022/08/09 10:55:34;;;;;;;2.50;2.13;;;25.60;93.30;;;;;;5078983;28;20473;-78
2022/08/09 10:58:32;;;;;;;4.20;2.50;;;25.60;93.40;;;;;;5083677;28;20425;-78
2022/08/09 11:01:04;;;;;;;3.40;2.53;;;25.70;93.40;;;;;;5081467;28;20424;-78
2022/08/09 11:04:17;;;;;;;3.90;2.50;;;25.70;93.30;;;;;;5078835;28;20429;-78
2022/08/09 11:07:29;;;;;;;3.23;2.30;;;25.80;93.00;;;;;;5073701;28;20441;-76
2022/08/09 11:10:37;;;;;;;2.93;2.00;;;25.80;92.90;;;;;;5074611;28;20429;-76
2022/08/09 11:13:16;;;;;;;3.63;2.43;;;25.80;93.00;;;;;;5074594;28;20441;-76
2022/08/09 11:16:32;;;;;;;4.53;3.10;;;25.80;92.90;;;;;;5075071;28;20469;-77
2022/08/09 11:19:03;;;;;;;4.80;2.70;;;25.80;92.60;;;;;;5072923;28;20442;-76
2022/08/09 11:21:54;;;;;;;3.00;2.57;;;25.80;92.50;;;;;;5074833;28;20482;-77
2022/08/09 11:25:06;;;;;;;4.00;2.53;;;25.80;92.30;;;;;;5074415;28;20828;-76
2022/08/09 11:27:38;;;;;;;5.70;3.13;;;25.80;92.10;;;;;;5074974;28;20417;-76
2022/08/09 11:30:34;;;;;;;4.47;2.83;;;25.80;92.20;;;;;;5074033;28;20446;-76
2022/08/09 11:33:11;;;;;;;5.00;2.90;;;25.80;92.10;;;;;;5074087;28;20868;-75
2022/08/09 11:35:43;;;;;;;3.83;3.23;;;25.80;92.00;;;;;;5073877;28;20515;-77
2022/08/09 11:38:21;;;;;;;4.13;2.60;;;25.90;92.00;;;;;;5074280;28;20436;-76
2022/08/09 11:41:04;;;;;;;4.70;2.40;;;25.90;91.90;;;;;;5072913;28;20935;-77
2022/08/09 11:43:41;;;;;;;5.23;2.33;;;25.90;91.80;;;;;;5072508;28;20465;-76
2022/08/09 11:46:11;;;;;;;4.27;2.57;;;25.90;91.80;;;;;;5074127;28;20452;-76
2022/08/09 11:48:56;;;;;;;3.30;2.60;;;25.90;91.80;;;;;;5073743;28;20480;-79
2022/08/09 11:51:26;;;;;;;5.00;2.17;;;25.90;91.80;;;;;;5072924;28;20451;-78
2022/08/09 11:54:16;;;;;;;3.23;1.90;;;25.90;91.80;;;;;;5073917;28;20463;-76
2022/08/09 11:57:02;;;;;;;2.73;1.70;;;26.00;91.80;;;;;;5072870;28;20472;-78
2022/08/09 11:59:34;;;;;;;3.37;2.20;;;26.00;91.80;;;;;;5074256;28;20417;-76
2022/08/09 12:02:13;;;;;;;3.40;2.33;;;26.00;91.60;;;;;;5073922;28;20421;-76
2022/08/09 12:04:52;;;;;;;4.10;2.77;;;26.00;91.60;;;;;;5073931;28;20484;-76
2022/08/09 12:07:28;;;;;;;3.03;2.07;;;26.00;91.60;;;;;;5073853;28;20424;-76
2022/08/09 12:10:10;;;;;;;3.83;2.23;;;26.00;91.50;;;;;;5073894;28;20912;-76
2022/08/09 12:13:00;;;;;;;3.30;2.40;;;26.10;91.50;;;;;;5073964;28;20438;-77
2022/08/09 12:15:48;;;;;;;3.70;2.00;;;26.10;91.40;;;;;;5073632;28;20465;-76
2022/08/09 12:18:21;;;;;;;3.73;1.83;;;26.10;91.30;;;;;;5073894;28;20457;-76
2022/08/09 12:20:58;;;;;;;4.63;1.80;;;26.10;91.10;;;;;;5073859;28;20456;-77
2022/08/09 12:23:30;;;;;;;2.80;1.80;;;26.10;91.00;;;;;;5074144;28;20925;-76
2022/08/09 12:26:19;;;;;;;3.80;1.83;;;26.10;91.00;;;;;;5072432;28;20465;-76
2022/08/09 12:28:55;;;;;;;2.10;1.37;;;26.10;90.80;;;;;;5074139;28;20460;-76
2022/08/09 12:31:45;;;;;;;2.50;1.93;;;26.10;90.60;;;;;;5073669;28;20783;-76
2022/08/09 12:34:36;;;;;;;5.17;2.20;;;26.00;90.60;;;;;;5073524;28;20460;-76
2022/08/09 12:37:05;;;;;;;4.53;1.87;;;26.10;90.70;;;;;;5073463;28;20475;-77
2022/08/09 12:40:01;;;;;;;2.87;1.83;;;26.10;90.70;;;;;;5073526;28;20508;-76
2022/08/09 12:42:32;;;;;;;4.37;1.73;;;26.10;90.50;;;;;;5072371;28;20494;-76
2022/08/09 12:45:02;;;;;;;4.97;1.87;;;26.20;90.40;;;;;;5074161;28;20464;-77
2022/08/09 12:47:51;;;;;;;2.67;1.73;;;26.20;90.30;;;;;;5074152;28;20789;-75
2022/08/09 12:50:21;;;;;;;1.90;1.40;;;26.20;90.20;;;;;;5077186;28;20429;-76
2022/08/09 12:52:52;;;;;;;2.57;1.87;;;26.20;90.20;;;;;;5077249;28;20479;-75
2022/08/09 12:55:40;;;;;;;3.73;1.87;;;26.20;90.20;;;;;;5076066;28;20497;-76
2022/08/09 12:58:28;;;;;;;4.53;1.73;;;26.20;90.10;;;;;;5077345;28;20445;-76
2022/08/09 13:00:57;;;;;;;3.40;2.00;;;26.20;90.00;;;;;;5075654;28;20445;-76
2022/08/09 13:03:30;;;;;;;2.90;1.60;;;26.20;89.70;;;;;;5077315;28;20461;-76
2022/08/09 13:06:28;;;;;;;3.97;2.00;;;26.20;89.50;;;;;;5075475;28;20461;-76
2022/08/09 13:09:13;;;;;;;2.70;1.43;;;26.20;89.50;;;;;;5075447;28;20445;-76
2022/08/09 13:11:43;;;;;;;3.83;1.80;;;26.20;89.40;;;;;;5076822;28;20453;-76
2022/08/09 13:14:14;;;;;;;2.70;1.60;;;26.20;89.30;;;;;;5075136;28;20441;-77
2022/08/09 13:17:04;;;;;;;2.27;1.87;;;26.30;89.60;;;;;;5074964;28;20878;-76
2022/08/09 13:19:37;;;;;;;2.37;1.40;;;26.30;89.50;;;;;;5076245;28;20825;-76
2022/08/09 13:22:27;;;;;;;3.03;1.30;;;26.30;89.20;;;;;;5076703;28;20455;-78
2022/08/09 13:25:15;;;;;;;2.73;1.40;;;26.30;88.80;;;;;;5076217;28;20461;-77
2022/08/09 13:27:44;;;;;;;2.40;1.53;;;26.30;89.00;;;;;;5074734;28;20484;-76
2022/08/09 13:30:24;;;;;;;2.70;1.50;;;26.40;89.00;;;;;;5076112;28;20504;-76
2022/08/09 13:33:22;;;;;;;4.83;1.50;;;26.50;88.80;;;;;;5075903;28;20437;-76
2022/08/09 13:35:50;;;;;;;4.77;1.70;;;26.50;88.40;;;;;;5076344;28;20837;-76
2022/08/09 13:38:40;;;;;;;3.00;2.10;;;26.60;88.50;;;;;;5074416;28;20463;-76
2022/08/09 13:41:25;;;;;;;2.43;1.70;;;26.60;88.50;;;;;;5074620;28;20457;-77
2022/08/09 13:44:15;;;;;;;2.33;1.50;;;26.50;88.30;;;;;;5075696;28;20461;-76